sensor_id;sensor_type;location;lat;lon;timestamp;pressure;altitude;pressure_sealevel;temperature
69415;BMP280;56608;43.530;-5.652;2023-04-15T00:00:58;101906.25;;;16.34
69415;BMP280;56608;43.530;-5.652;2023-04-15T00:01:59;101909.62;;;16.38
69415;BMP280;56608;43.530;-5.652;2023-04-15T00:03:01;101905.13;;;16.44
69415;BMP280;56608;43.530;-5.652;2023-04-15T00:04:01;101904.81;;;16.42
69415;BMP280;56608;43.530;-5.652;2023-04-15T00:05:04;101907.16;;;16.31
69415;BMP280;56608;43.530;-5.652;2023-04-15T00:06:06;101906.03;;;16.41
69415;BMP280;56608;43.530;-5.652;2023-04-15T00:07:06;101907.50;;;16.42
69415;BMP280;56608;43.530;-5.652;2023-04-15T00:08:08;101913.88;;;16.48
69415;BMP280;56608;43.530;-5.652;2023-04-15T00:09:10;101911.63;;;16.47
69415;BMP280;56608;43.530;-5.652;2023-04-15T00:10:12;101914.91;;;16.41
69415;BMP280;56608;43.530;-5.652;2023-04-15T00:11:14;101911.50;;;16.28
69415;BMP280;56608;43.530;-5.652;2023-04-15T00:12:14;101913.25;;;16.13
69415;BMP280;56608;43.530;-5.652;2023-04-15T00:13:16;101916.31;;;16.02
69415;BMP280;56608;43.530;-5.652;2023-04-15T00:14:18;101923.50;;;15.96
69415;BMP280;56608;43.530;-5.652;2023-04-15T00:15:19;101907.75;;;15.82
69415;BMP280;56608;43.530;-5.652;2023-04-15T00:16:20;101908.16;;;15.93
69415;BMP280;56608;43.530;-5.652;2023-04-15T00:17:22;101909.97;;;15.96
69415;BMP280;56608;43.530;-5.652;2023-04-15T00:18:23;101914.00;;;15.92
69415;BMP280;56608;43.530;-5.652;2023-04-15T00:19:24;101907.56;;;15.98
69415;BMP280;56608;43.530;-5.652;2023-04-15T00:20:26;101914.75;;;15.92
69415;BMP280;56608;43.530;-5.652;2023-04-15T00:21:26;101907.19;;;15.87
69415;BMP280;56608;43.530;-5.652;2023-04-15T00:22:29;101918.88;;;15.84
69415;BMP280;56608;43.530;-5.652;2023-04-15T00:23:29;101914.66;;;15.83
69415;BMP280;56608;43.530;-5.652;2023-04-15T00:24:31;101918.88;;;15.84
69415;BMP280;56608;43.530;-5.652;2023-04-15T00:25:32;101916.88;;;15.76
69415;BMP280;56608;43.530;-5.652;2023-04-15T00:26:34;101917.31;;;15.74
69415;BMP280;56608;43.530;-5.652;2023-04-15T00:27:35;101920.84;;;15.84
69415;BMP280;56608;43.530;-5.652;2023-04-15T00:28:37;101909.78;;;15.91
69415;BMP280;56608;43.530;-5.652;2023-04-15T00:29:38;101911.00;;;15.99
69415;BMP280;56608;43.530;-5.652;2023-04-15T00:30:39;101919.03;;;16.02
69415;BMP280;56608;43.530;-5.652;2023-04-15T00:31:41;101928.53;;;16.07
69415;BMP280;56608;43.530;-5.652;2023-04-15T00:32:42;101920.22;;;16.01
69415;BMP280;56608;43.530;-5.652;2023-04-15T00:33:44;101918.03;;;16.09
69415;BMP280;56608;43.530;-5.652;2023-04-15T00:34:46;101916.06;;;16.10
69415;BMP280;56608;43.530;-5.652;2023-04-15T00:35:47;101917.47;;;15.92
69415;BMP280;56608;43.530;-5.652;2023-04-15T00:36:49;101916.81;;;15.88
69415;BMP280;56608;43.530;-5.652;2023-04-15T00:37:51;101909.00;;;15.90
69415;BMP280;56608;43.530;-5.652;2023-04-15T00:38:52;101920.47;;;15.94
69415;BMP280;56608;43.530;-5.652;2023-04-15T00:39:53;101912.47;;;15.91
69415;BMP280;56608;43.530;-5.652;2023-04-15T00:40:54;101918.22;;;15.93
69415;BMP280;56608;43.530;-5.652;2023-04-15T00:41:57;101914.87;;;15.89
69415;BMP280;56608;43.530;-5.652;2023-04-15T00:42:58;101921.28;;;15.82
69415;BMP280;56608;43.530;-5.652;2023-04-15T00:44:00;101916.53;;;15.86
69415;BMP280;56608;43.530;-5.652;2023-04-15T00:45:03;101919.00;;;15.93
69415;BMP280;56608;43.530;-5.652;2023-04-15T00:46:05;101922.63;;;15.99
69415;BMP280;56608;43.530;-5.652;2023-04-15T00:47:07;101915.81;;;15.95
69415;BMP280;56608;43.530;-5.652;2023-04-15T00:48:08;101922.63;;;15.99
69415;BMP280;56608;43.530;-5.652;2023-04-15T00:49:10;101928.59;;;15.94
69415;BMP280;56608;43.530;-5.652;2023-04-15T00:50:13;101930.12;;;15.95
69415;BMP280;56608;43.530;-5.652;2023-04-15T00:51:14;101921.59;;;15.84
69415;BMP280;56608;43.530;-5.652;2023-04-15T00:52:15;101914.13;;;15.88
69415;BMP280;56608;43.530;-5.652;2023-04-15T00:53:16;101913.81;;;15.86
69415;BMP280;56608;43.530;-5.652;2023-04-15T00:54:18;101918.22;;;15.93
69415;BMP280;56608;43.530;-5.652;2023-04-15T00:55:19;101922.00;;;15.95
69415;BMP280;56608;43.530;-5.652;2023-04-15T00:56:21;101921.59;;;15.84
69415;BMP280;56608;43.530;-5.652;2023-04-15T00:57:24;101924.72;;;15.83
69415;BMP280;56608;43.530;-5.652;2023-04-15T00:58:27;101914.25;;;15.85
69415;BMP280;56608;43.530;-5.652;2023-04-15T00:59:28;101920.19;;;15.92
69415;BMP280;56608;43.530;-5.652;2023-04-15T01:00:30;101912.41;;;15.82
69415;BMP280;56608;43.530;-5.652;2023-04-15T01:01:33;101916.59;;;15.83
69415;BMP280;56608;43.530;-5.652;2023-04-15T01:02:35;101912.91;;;15.89
69415;BMP280;56608;43.530;-5.652;2023-04-15T01:03:36;101920.03;;;15.96
69415;BMP280;56608;43.530;-5.652;2023-04-15T01:04:38;101905.25;;;15.88
69415;BMP280;56608;43.530;-5.652;2023-04-15T01:05:39;101910.53;;;15.91
69415;BMP280;56608;43.530;-5.652;2023-04-15T01:06:41;101912.66;;;15.96
69415;BMP280;56608;43.530;-5.652;2023-04-15T01:07:43;101913.44;;;15.97
69415;BMP280;56608;43.530;-5.652;2023-04-15T01:08:44;101923.00;;;15.89
69415;BMP280;56608;43.530;-5.652;2023-04-15T01:09:46;101916.09;;;15.88
69415;BMP280;56608;43.530;-5.652;2023-04-15T01:10:47;101916.16;;;15.84
69415;BMP280;56608;43.530;-5.652;2023-04-15T01:11:49;101916.16;;;15.84
69415;BMP280;56608;43.530;-5.652;2023-04-15T01:12:49;101918.09;;;15.96
69415;BMP280;56608;43.530;-5.652;2023-04-15T01:13:51;101910.53;;;15.91
69415;BMP280;56608;43.530;-5.652;2023-04-15T01:14:52;101919.47;;;16.01
69415;BMP280;56608;43.530;-5.652;2023-04-15T01:15:55;101912.34;;;15.94
69415;BMP280;56608;43.530;-5.652;2023-04-15T01:16:56;101911.00;;;15.99
69415;BMP280;56608;43.530;-5.652;2023-04-15T01:17:58;101908.16;;;15.93
69415;BMP280;56608;43.530;-5.652;2023-04-15T01:18:59;101909.44;;;15.89
69415;BMP280;56608;43.530;-5.652;2023-04-15T01:20:01;101908.88;;;15.94
69415;BMP280;56608;43.530;-5.652;2023-04-15T01:21:02;101911.78;;;15.99
69415;BMP280;56608;43.530;-5.652;2023-04-15T01:22:04;101906.16;;;15.72
69415;BMP280;56608;43.530;-5.652;2023-04-15T01:23:05;101914.41;;;15.69
69415;BMP280;56608;43.530;-5.652;2023-04-15T01:24:07;101908.09;;;15.72
69415;BMP280;56608;43.530;-5.652;2023-04-15T01:25:12;101912.78;;;15.71
69415;BMP280;56608;43.530;-5.652;2023-04-15T01:26:17;101919.44;;;15.79
69415;BMP280;56608;43.530;-5.652;2023-04-15T01:27:17;101921.22;;;15.73
69415;BMP280;56608;43.530;-5.652;2023-04-15T01:28:19;101905.88;;;15.57
69415;BMP280;56608;43.530;-5.652;2023-04-15T01:29:21;101906.44;;;15.52
69415;BMP280;56608;43.530;-5.652;2023-04-15T01:30:23;101912.63;;;15.53
69415;BMP280;56608;43.530;-5.652;2023-04-15T01:31:23;101909.00;;;15.56
69415;BMP280;56608;43.530;-5.652;2023-04-15T01:32:25;101906.31;;;15.56
69415;BMP280;56608;43.530;-5.652;2023-04-15T01:33:27;101909.34;;;15.58
69415;BMP280;56608;43.530;-5.652;2023-04-15T01:34:27;101911.94;;;15.61
69415;BMP280;56608;43.530;-5.652;2023-04-15T01:35:29;101916.22;;;15.72
69415;BMP280;56608;43.530;-5.652;2023-04-15T01:36:31;101918.63;;;15.70
69415;BMP280;56608;43.530;-5.652;2023-04-15T01:37:32;101917.25;;;15.65
69415;BMP280;56608;43.530;-5.652;2023-04-15T01:38:33;101910.66;;;15.66
69415;BMP280;56608;43.530;-5.652;2023-04-15T01:39:35;101915.69;;;15.77
69415;BMP280;56608;43.530;-5.652;2023-04-15T01:40:36;101902.69;;;15.72
69415;BMP280;56608;43.530;-5.652;2023-04-15T01:41:38;101915.03;;;15.73
69415;BMP280;56608;43.530;-5.652;2023-04-15T01:42:40;101908.94;;;15.81
69415;BMP280;56608;43.530;-5.652;2023-04-15T01:43:41;101906.53;;;15.83
69415;BMP280;56608;43.530;-5.652;2023-04-15T01:44:43;101912.41;;;15.82
69415;BMP280;56608;43.530;-5.652;2023-04-15T01:45:44;101922.78;;;15.83
69415;BMP280;56608;43.530;-5.652;2023-04-15T01:46:47;101919.69;;;15.72
69415;BMP280;56608;43.530;-5.652;2023-04-15T01:47:48;101926.75;;;15.70
69415;BMP280;56608;43.530;-5.652;2023-04-15T01:48:50;101915.50;;;15.71
69415;BMP280;56608;43.530;-5.652;2023-04-15T01:49:51;101911.75;;;15.78
69415;BMP280;56608;43.530;-5.652;2023-04-15T01:50:54;101921.87;;;15.77
69415;BMP280;56608;43.530;-5.652;2023-04-15T01:51:57;101912.13;;;15.67
69415;BMP280;56608;43.530;-5.652;2023-04-15T01:52:58;101918.19;;;15.71
69415;BMP280;56608;43.530;-5.652;2023-04-15T01:54:00;101910.38;;;15.73
69415;BMP280;56608;43.530;-5.652;2023-04-15T01:55:01;101922.09;;;15.70
69415;BMP280;56608;43.530;-5.652;2023-04-15T01:56:02;101917.87;;;15.69
69415;BMP280;56608;43.530;-5.652;2023-04-15T01:57:03;101918.94;;;15.72
69415;BMP280;56608;43.530;-5.652;2023-04-15T01:58:04;101912.97;;;15.77
69415;BMP280;56608;43.530;-5.652;2023-04-15T01:59:05;101919.31;;;15.61
69415;BMP280;56608;43.530;-5.652;2023-04-15T02:00:07;101922.34;;;15.63
69415;BMP280;56608;43.530;-5.652;2023-04-15T02:01:09;101925.72;;;15.54
69415;BMP280;56608;43.530;-5.652;2023-04-15T02:02:11;101924.44;;;15.46
69415;BMP280;56608;43.530;-5.652;2023-04-15T02:03:12;101925.59;;;15.58
69415;BMP280;56608;43.530;-5.652;2023-04-15T02:04:14;101926.91;;;15.66
69415;BMP280;56608;43.530;-5.652;2023-04-15T02:05:16;101932.81;;;15.74
69415;BMP280;56608;43.530;-5.652;2023-04-15T02:06:18;101926.25;;;15.62
69415;BMP280;56608;43.530;-5.652;2023-04-15T02:07:19;101927.53;;;15.70
69415;BMP280;56608;43.530;-5.652;2023-04-15T02:08:21;101930.66;;;15.69
69415;BMP280;56608;43.530;-5.652;2023-04-15T02:09:22;101941.50;;;15.69
69415;BMP280;56608;43.530;-5.652;2023-04-15T02:10:24;101938.34;;;15.70
69415;BMP280;56608;43.530;-5.652;2023-04-15T02:11:25;101944.66;;;15.67
69415;BMP280;56608;43.530;-5.652;2023-04-15T02:12:26;101940.75;;;15.68
69415;BMP280;56608;43.530;-5.652;2023-04-15T02:13:28;101944.53;;;15.71
69415;BMP280;56608;43.530;-5.652;2023-04-15T02:14:29;101953.44;;;15.71
69415;BMP280;56608;43.530;-5.652;2023-04-15T02:15:31;101944.22;;;15.56
69415;BMP280;56608;43.530;-5.652;2023-04-15T02:16:32;101953.56;;;15.55
69415;BMP280;56608;43.530;-5.652;2023-04-15T02:17:35;101952.28;;;15.47
69415;BMP280;56608;43.530;-5.652;2023-04-15T02:18:37;101951.72;;;15.52
69415;BMP280;56608;43.530;-5.652;2023-04-15T02:19:38;101947.69;;;15.56
69415;BMP280;56608;43.530;-5.652;2023-04-15T02:20:40;101958.66;;;15.66
69415;BMP280;56608;43.530;-5.652;2023-04-15T02:21:43;101960.19;;;15.54
69415;BMP280;56608;43.530;-5.652;2023-04-15T02:22:44;101958.66;;;15.53
69415;BMP280;56608;43.530;-5.652;2023-04-15T02:23:45;101952.56;;;15.61
69415;BMP280;56608;43.530;-5.652;2023-04-15T02:24:48;101949.81;;;15.74
69415;BMP280;56608;43.530;-5.652;2023-04-15T02:25:50;101954.69;;;15.79
69415;BMP280;56608;43.530;-5.652;2023-04-15T02:26:50;101958.19;;;15.67
69415;BMP280;56608;43.530;-5.652;2023-04-15T02:27:52;101952.06;;;15.54
69415;BMP280;56608;43.530;-5.652;2023-04-15T02:28:54;101963.50;;;15.58
69415;BMP280;56608;43.530;-5.652;2023-04-15T02:29:55;101957.22;;;15.61
69415;BMP280;56608;43.530;-5.652;2023-04-15T02:30:55;101964.25;;;15.71
69415;BMP280;56608;43.530;-5.652;2023-04-15T02:31:59;101961.41;;;15.75
69415;BMP280;56608;43.530;-5.652;2023-04-15T02:33:00;101958.28;;;15.76
69415;BMP280;56608;43.530;-5.652;2023-04-15T02:34:01;101959.16;;;15.73
69415;BMP280;56608;43.530;-5.652;2023-04-15T02:35:06;101959.78;;;15.77
69415;BMP280;56608;43.530;-5.652;2023-04-15T02:36:07;101952.72;;;15.80
69415;BMP280;56608;43.530;-5.652;2023-04-15T02:37:11;101949.59;;;15.81
69415;BMP280;56608;43.530;-5.652;2023-04-15T02:38:13;101967.25;;;15.86
69415;BMP280;56608;43.530;-5.652;2023-04-15T02:39:16;101953.91;;;15.79
69415;BMP280;56608;43.530;-5.652;2023-04-15T02:40:18;101956.97;;;15.81
69415;BMP280;56608;43.530;-5.652;2023-04-15T02:41:20;101960.72;;;15.83
69415;BMP280;56608;43.530;-5.652;2023-04-15T02:42:25;101959.16;;;15.73
69415;BMP280;56608;43.530;-5.652;2023-04-15T02:43:28;101953.72;;;15.73
69415;BMP280;56608;43.530;-5.652;2023-04-15T02:44:29;101969.34;;;15.69
69415;BMP280;56608;43.530;-5.652;2023-04-15T02:45:30;101960.28;;;15.63
69415;BMP280;56608;43.530;-5.652;2023-04-15T02:46:31;101960.69;;;15.61
69415;BMP280;56608;43.530;-5.652;2023-04-15T02:47:34;101951.59;;;15.68
69415;BMP280;56608;43.530;-5.652;2023-04-15T02:48:36;101948.00;;;15.71
69415;BMP280;56608;43.530;-5.652;2023-04-15T02:49:37;101952.72;;;15.80
69415;BMP280;56608;43.530;-5.652;2023-04-15T02:50:38;101955.31;;;15.83
69415;BMP280;56608;43.530;-5.652;2023-04-15T02:51:41;101949.88;;;15.83
69415;BMP280;56608;43.530;-5.652;2023-04-15T02:52:42;101953.72;;;15.86
69415;BMP280;56608;43.530;-5.652;2023-04-15T02:53:45;101953.72;;;15.86
69415;BMP280;56608;43.530;-5.652;2023-04-15T02:54:47;101948.72;;;15.72
69415;BMP280;56608;43.530;-5.652;2023-04-15T02:55:48;101958.72;;;15.75
69415;BMP280;56608;43.530;-5.652;2023-04-15T02:56:50;101958.28;;;15.76
69415;BMP280;56608;43.530;-5.652;2023-04-15T02:57:55;101952.97;;;15.73
69415;BMP280;56608;43.530;-5.652;2023-04-15T02:58:58;101948.97;;;15.77
69415;BMP280;56608;43.530;-5.652;2023-04-15T02:59:59;101948.06;;;15.80
69415;BMP280;56608;43.530;-5.652;2023-04-15T03:01:01;101949.81;;;15.74
69415;BMP280;56608;43.530;-5.652;2023-04-15T03:02:02;101955.87;;;15.78
69415;BMP280;56608;43.530;-5.652;2023-04-15T03:03:04;101957.94;;;15.74
69415;BMP280;56608;43.530;-5.652;2023-04-15T03:04:06;101961.94;;;15.82
69415;BMP280;56608;43.530;-5.652;2023-04-15T03:05:11;101956.41;;;15.86
69415;BMP280;56608;43.530;-5.652;2023-04-15T03:06:13;101949.47;;;15.85
69415;BMP280;56608;43.530;-5.652;2023-04-15T03:07:14;101955.44;;;15.80
69415;BMP280;56608;43.530;-5.652;2023-04-15T03:08:16;101964.69;;;15.70
69415;BMP280;56608;43.530;-5.652;2023-04-15T03:09:18;101965.34;;;15.61
69415;BMP280;56608;43.530;-5.652;2023-04-15T03:10:18;101967.53;;;15.53
69415;BMP280;56608;43.530;-5.652;2023-04-15T03:11:20;101964.31;;;15.58
69415;BMP280;56608;43.530;-5.652;2023-04-15T03:12:21;101969.59;;;15.62
69415;BMP280;56608;43.530;-5.652;2023-04-15T03:13:23;101959.28;;;15.70
69415;BMP280;56608;43.530;-5.652;2023-04-15T03:14:25;101954.91;;;15.72
69415;BMP280;56608;43.530;-5.652;2023-04-15T03:15:27;101955.47;;;15.67
69415;BMP280;56608;43.530;-5.652;2023-04-15T03:16:28;101954.97;;;15.59
69415;BMP280;56608;43.530;-5.652;2023-04-15T03:17:30;101959.84;;;15.64
69415;BMP280;56608;43.530;-5.652;2023-04-15T03:18:32;101957.22;;;15.61
69415;BMP280;56608;43.530;-5.652;2023-04-15T03:19:34;101952.06;;;15.54
69415;BMP280;56608;43.530;-5.652;2023-04-15T03:20:35;101957.75;;;15.56
69415;BMP280;56608;43.530;-5.652;2023-04-15T03:21:36;101954.44;;;15.64
69415;BMP280;56608;43.530;-5.652;2023-04-15T03:22:38;101951.09;;;15.48
69415;BMP280;56608;43.530;-5.652;2023-04-15T03:23:38;101947.63;;;15.47
69415;BMP280;56608;43.530;-5.652;2023-04-15T03:24:40;101953.09;;;15.56
69415;BMP280;56608;43.530;-5.652;2023-04-15T03:25:43;101948.16;;;15.55
69415;BMP280;56608;43.530;-5.652;2023-04-15T03:26:45;101949.34;;;15.54
69415;BMP280;56608;43.530;-5.652;2023-04-15T03:27:46;101956.72;;;15.53
69415;BMP280;56608;43.530;-5.652;2023-04-15T03:28:46;101949.00;;;15.52
69415;BMP280;56608;43.530;-5.652;2023-04-15T03:29:48;101947.06;;;15.52
69415;BMP280;56608;43.530;-5.652;2023-04-15T03:30:50;101947.25;;;15.58
69415;BMP280;56608;43.530;-5.652;2023-04-15T03:31:51;101943.47;;;15.55
69415;BMP280;56608;43.530;-5.652;2023-04-15T03:32:53;101946.50;;;15.57
69415;BMP280;56608;43.530;-5.652;2023-04-15T03:33:54;101951.81;;;15.61
69415;BMP280;56608;43.530;-5.652;2023-04-15T03:34:54;101951.81;;;15.61
69415;BMP280;56608;43.530;-5.652;2023-04-15T03:35:56;101958.78;;;15.49
69415;BMP280;56608;43.530;-5.652;2023-04-15T03:36:58;101961.72;;;15.42
69415;BMP280;56608;43.530;-5.652;2023-04-15T03:37:59;101957.56;;;15.50
69415;BMP280;56608;43.530;-5.652;2023-04-15T03:39:01;101957.75;;;15.56
69415;BMP280;56608;43.530;-5.652;2023-04-15T03:40:04;101950.66;;;15.49
69415;BMP280;56608;43.530;-5.652;2023-04-15T03:41:06;101958.13;;;15.45
69415;BMP280;56608;43.530;-5.652;2023-04-15T03:42:07;101956.75;;;15.41
69415;BMP280;56608;43.530;-5.652;2023-04-15T03:43:09;101955.97;;;15.40
69415;BMP280;56608;43.530;-5.652;2023-04-15T03:44:10;101950.47;;;15.44
69415;BMP280;56608;43.530;-5.652;2023-04-15T03:45:11;101955.31;;;15.49
69415;BMP280;56608;43.530;-5.652;2023-04-15T03:46:13;101961.59;;;15.46
69415;BMP280;56608;43.530;-5.652;2023-04-15T03:47:14;101956.50;;;15.48
69415;BMP280;56608;43.530;-5.652;2023-04-15T03:48:16;101955.87;;;15.44
69415;BMP280;56608;43.530;-5.652;2023-04-15T03:49:17;101965.63;;;15.29
69415;BMP280;56608;43.530;-5.652;2023-04-15T03:50:20;101958.25;;;15.29
69415;BMP280;56608;43.530;-5.652;2023-04-15T03:51:21;101953.25;;;15.27
69415;BMP280;56608;43.530;-5.652;2023-04-15T03:52:23;101950.88;;;15.30
69415;BMP280;56608;43.530;-5.652;2023-04-15T03:53:24;101954.16;;;15.24
69415;BMP280;56608;43.530;-5.652;2023-04-15T03:54:26;101949.94;;;15.23
69415;BMP280;56608;43.530;-5.652;2023-04-15T03:55:27;101959.91;;;15.27
69415;BMP280;56608;43.530;-5.652;2023-04-15T03:56:29;101951.25;;;15.19
69415;BMP280;56608;43.530;-5.652;2023-04-15T03:57:30;101956.53;;;15.22
69415;BMP280;56608;43.530;-5.652;2023-04-15T03:58:31;101961.19;;;15.22
69415;BMP280;56608;43.530;-5.652;2023-04-15T03:59:33;101953.53;;;15.08
69415;BMP280;56608;43.530;-5.652;2023-04-15T04:00:34;101957.41;;;15.07
69415;BMP280;56608;43.530;-5.652;2023-04-15T04:01:36;101958.19;;;15.07
69415;BMP280;56608;43.530;-5.652;2023-04-15T04:02:37;101957.75;;;15.09
69415;BMP280;56608;43.530;-5.652;2023-04-15T04:03:39;101958.38;;;15.00
69415;BMP280;56608;43.530;-5.652;2023-04-15T04:04:39;101958.81;;;15.11
69415;BMP280;56608;43.530;-5.652;2023-04-15T04:05:41;101952.00;;;15.07
69415;BMP280;56608;43.530;-5.652;2023-04-15T04:06:44;101952.78;;;15.07
69415;BMP280;56608;43.530;-5.652;2023-04-15T04:07:45;101954.28;;;15.08
69415;BMP280;56608;43.530;-5.652;2023-04-15T04:08:47;101950.91;;;15.04
69415;BMP280;56608;43.530;-5.652;2023-04-15T04:09:48;101947.22;;;15.11
69415;BMP280;56608;43.530;-5.652;2023-04-15T04:10:50;101954.38;;;15.17
69415;BMP280;56608;43.530;-5.652;2023-04-15T04:11:51;101951.66;;;15.17
69415;BMP280;56608;43.530;-5.652;2023-04-15T04:12:53;101950.41;;;15.09
69415;BMP280;56608;43.530;-5.652;2023-04-15T04:13:54;101952.97;;;15.13
69415;BMP280;56608;43.530;-5.652;2023-04-15T04:14:55;101957.22;;;15.14
69415;BMP280;56608;43.530;-5.652;2023-04-15T04:15:57;101955.56;;;15.16
69415;BMP280;56608;43.530;-5.652;2023-04-15T04:16:58;101963.03;;;15.12
69415;BMP280;56608;43.530;-5.652;2023-04-15T04:18:00;101958.81;;;15.11
69415;BMP280;56608;43.530;-5.652;2023-04-15T04:19:01;101959.16;;;15.13
69415;BMP280;56608;43.530;-5.652;2023-04-15T04:20:02;101960.00;;;15.10
69415;BMP280;56608;43.530;-5.652;2023-04-15T04:21:04;101961.22;;;15.09
69415;BMP280;56608;43.530;-5.652;2023-04-15T04:22:06;101972.56;;;15.04
69415;BMP280;56608;43.530;-5.652;2023-04-15T04:23:07;101963.94;;;15.09
69415;BMP280;56608;43.530;-5.652;2023-04-15T04:24:08;101966.31;;;15.07
69415;BMP280;56608;43.530;-5.652;2023-04-15T04:25:09;101970.53;;;15.08
69415;BMP280;56608;43.530;-5.652;2023-04-15T04:26:11;101980.03;;;15.00
69415;BMP280;56608;43.530;-5.652;2023-04-15T04:27:12;101979.37;;;14.96
69415;BMP280;56608;43.530;-5.652;2023-04-15T04:28:14;101965.63;;;15.03
69415;BMP280;56608;43.530;-5.652;2023-04-15T04:29:15;101967.06;;;15.08
69415;BMP280;56608;43.530;-5.652;2023-04-15T04:30:17;101962.03;;;15.06
69415;BMP280;56608;43.530;-5.652;2023-04-15T04:31:18;101960.97;;;15.04
69415;BMP280;56608;43.530;-5.652;2023-04-15T04:32:19;101964.88;;;15.03
69415;BMP280;56608;43.530;-5.652;2023-04-15T04:33:21;101965.94;;;15.05
69415;BMP280;56608;43.530;-5.652;2023-04-15T04:34:22;101963.25;;;15.05
69415;BMP280;56608;43.530;-5.652;2023-04-15T04:35:24;101962.94;;;15.03
69415;BMP280;56608;43.530;-5.652;2023-04-15T04:36:25;101960.22;;;15.03
69415;BMP280;56608;43.530;-5.652;2023-04-15T04:37:27;101961.41;;;15.02
69415;BMP280;56608;43.530;-5.652;2023-04-15T04:38:27;101965.31;;;15.01
69415;BMP280;56608;43.530;-5.652;2023-04-15T04:39:29;101962.94;;;15.03
69415;BMP280;56608;43.530;-5.652;2023-04-15T04:40:30;101965.63;;;15.03
69415;BMP280;56608;43.530;-5.652;2023-04-15T04:41:32;101959.34;;;14.94
69415;BMP280;56608;43.530;-5.652;2023-04-15T04:42:33;101960.78;;;14.98
69415;BMP280;56608;43.530;-5.652;2023-04-15T04:43:35;101960.22;;;15.03
69415;BMP280;56608;43.530;-5.652;2023-04-15T04:44:36;101966.91;;;14.99
69415;BMP280;56608;43.530;-5.652;2023-04-15T04:45:37;101966.41;;;15.04
69415;BMP280;56608;43.530;-5.652;2023-04-15T04:46:39;101974.75;;;15.09
69415;BMP280;56608;43.530;-5.652;2023-04-15T04:47:40;101972.69;;;15.13
69415;BMP280;56608;43.530;-5.652;2023-04-15T04:48:41;101978.66;;;15.08
69415;BMP280;56608;43.530;-5.652;2023-04-15T04:49:43;101981.41;;;15.05
69415;BMP280;56608;43.530;-5.652;2023-04-15T04:50:44;101980.59;;;15.08
69415;BMP280;56608;43.530;-5.652;2023-04-15T04:51:47;101975.41;;;15.13
69415;BMP280;56608;43.530;-5.652;2023-04-15T04:52:49;101983.41;;;15.17
69415;BMP280;56608;43.530;-5.652;2023-04-15T04:53:50;101977.88;;;15.20
69415;BMP280;56608;43.530;-5.652;2023-04-15T04:54:51;101977.88;;;15.20
69415;BMP280;56608;43.530;-5.652;2023-04-15T04:55:53;101987.62;;;15.18
69415;BMP280;56608;43.530;-5.652;2023-04-15T04:56:54;101985.87;;;15.11
69415;BMP280;56608;43.530;-5.652;2023-04-15T04:57:55;101984.88;;;15.05
69415;BMP280;56608;43.530;-5.652;2023-04-15T04:58:57;101986.00;;;15.08
69415;BMP280;56608;43.530;-5.652;2023-04-15T04:59:58;101987.75;;;15.14
69415;BMP280;56608;43.530;-5.652;2023-04-15T05:00:59;101986.66;;;15.12
69415;BMP280;56608;43.530;-5.652;2023-04-15T05:02:01;101987.59;;;15.05
69415;BMP280;56608;43.530;-5.652;2023-04-15T05:03:03;101997.59;;;15.08
69415;BMP280;56608;43.530;-5.652;2023-04-15T05:04:04;101988.28;;;15.09
69415;BMP280;56608;43.530;-5.652;2023-04-15T05:05:06;101992.81;;;15.12
69415;BMP280;56608;43.530;-5.652;2023-04-15T05:06:08;101991.31;;;15.11
69415;BMP280;56608;43.530;-5.652;2023-04-15T05:07:09;101983.50;;;15.13
69415;BMP280;56608;43.530;-5.652;2023-04-15T05:08:10;101998.88;;;15.16
69415;BMP280;56608;43.530;-5.652;2023-04-15T05:09:12;101996.16;;;15.16
69415;BMP280;56608;43.530;-5.652;2023-04-15T05:10:14;101996.50;;;15.18
69415;BMP280;56608;43.530;-5.652;2023-04-15T05:11:17;101999.75;;;15.13
69415;BMP280;56608;43.530;-5.652;2023-04-15T05:12:19;102004.84;;;15.11
69415;BMP280;56608;43.530;-5.652;2023-04-15T05:13:19;102007.44;;;15.15
69415;BMP280;56608;43.530;-5.652;2023-04-15T05:14:22;102006.03;;;15.10
69415;BMP280;56608;43.530;-5.652;2023-04-15T05:15:24;102000.19;;;15.12
69415;BMP280;56608;43.530;-5.652;2023-04-15T05:16:25;102005.16;;;15.13
69415;BMP280;56608;43.530;-5.652;2023-04-15T05:17:27;102014.47;;;15.12
69415;BMP280;56608;43.530;-5.652;2023-04-15T05:18:31;102010.25;;;15.11
69415;BMP280;56608;43.530;-5.652;2023-04-15T05:19:32;102007.88;;;15.13
69415;BMP280;56608;43.530;-5.652;2023-04-15T05:20:33;102013.41;;;15.10
69415;BMP280;56608;43.530;-5.652;2023-04-15T05:21:35;102012.19;;;15.11
69415;BMP280;56608;43.530;-5.652;2023-04-15T05:22:37;102016.00;;;15.13
69415;BMP280;56608;43.530;-5.652;2023-04-15T05:23:38;102023.56;;;15.18
69415;BMP280;56608;43.530;-5.652;2023-04-15T05:24:38;102019.03;;;15.15
69415;BMP280;56608;43.530;-5.652;2023-04-15T05:25:39;102020.44;;;15.20
69415;BMP280;56608;43.530;-5.652;2023-04-15T05:26:40;102021.84;;;15.24
69415;BMP280;56608;43.530;-5.652;2023-04-15T05:27:42;102025.72;;;15.23
69415;BMP280;56608;43.530;-5.652;2023-04-15T05:28:43;102021.06;;;15.24
69415;BMP280;56608;43.530;-5.652;2023-04-15T05:29:45;102016.53;;;15.21
69415;BMP280;56608;43.530;-5.652;2023-04-15T05:30:46;102021.84;;;15.24
69415;BMP280;56608;43.530;-5.652;2023-04-15T05:31:47;102023.16;;;15.33
69415;BMP280;56608;43.530;-5.652;2023-04-15T05:32:48;102026.19;;;15.35
69415;BMP280;56608;43.530;-5.652;2023-04-15T05:33:50;102024.00;;;15.30
69415;BMP280;56608;43.530;-5.652;2023-04-15T05:34:51;102020.97;;;15.27
69415;BMP280;56608;43.530;-5.652;2023-04-15T05:35:53;102017.94;;;15.25
69415;BMP280;56608;43.530;-5.652;2023-04-15T05:36:54;102022.25;;;15.23
69415;BMP280;56608;43.530;-5.652;2023-04-15T05:37:54;102029.41;;;15.30
69415;BMP280;56608;43.530;-5.652;2023-04-15T05:38:56;102012.09;;;15.27
69415;BMP280;56608;43.530;-5.652;2023-04-15T05:39:58;102016.84;;;15.23
69415;BMP280;56608;43.530;-5.652;2023-04-15T05:40:58;102021.72;;;15.28
69415;BMP280;56608;43.530;-5.652;2023-04-15T05:42:00;102022.47;;;15.29
69415;BMP280;56608;43.530;-5.652;2023-04-15T05:43:02;102030.06;;;15.34
69415;BMP280;56608;43.530;-5.652;2023-04-15T05:44:02;102035.81;;;15.36
69415;BMP280;56608;43.530;-5.652;2023-04-15T05:45:04;102028.12;;;15.34